Time;durP1;ratioP1;P1;durP2;ratioP2;P2;SDS_P1;SDS_P2;PMS_P1;PMS_P2;Temp;Humidity;BMP_temperature;BMP_pressure;BME280_temperature;BME280_humidity;BME280_pressure;Samples;Min_cycle;Max_cycle;Signal;HPM_P1;HPM_P2
2022/07/10 00:01:17;;;;;;;5.42;1.87;;;21.80;99.90;;;;;;1918859;74;21141;-77
2022/07/10 00:04:09;;;;;;;7.03;1.85;;;21.80;99.90;;;;;;1918018;74;21087;-78
2022/07/10 00:07:01;;;;;;;4.70;2.08;;;21.80;99.90;;;;;;1916305;74;21543;-78
2022/07/10 00:09:53;;;;;;;3.05;1.70;;;21.80;99.90;;;;;;1907769;74;21093;-77
2022/07/10 00:12:44;;;;;;;5.47;2.22;;;21.70;99.90;;;;;;1920610;74;21133;-77
2022/07/10 00:15:36;;;;;;;5.05;1.80;;;21.70;99.90;;;;;;1919643;74;21183;-77
2022/07/10 00:18:28;;;;;;;2.55;1.50;;;21.60;99.90;;;;;;1918962;74;21050;-77
2022/07/10 00:21:20;;;;;;;3.87;1.95;;;21.50;99.90;;;;;;1925401;74;21134;-77
2022/07/10 00:24:12;;;;;;;4.28;1.70;;;21.50;99.90;;;;;;1925091;74;21134;-76
2022/07/10 00:27:03;;;;;;;5.85;1.72;;;21.40;99.90;;;;;;1922667;74;21142;-77
2022/07/10 00:29:55;;;;;;;3.52;1.80;;;21.40;99.90;;;;;;1919539;74;21207;-76
2022/07/10 00:32:46;;;;;;;3.85;1.82;;;21.40;99.90;;;;;;1916944;74;21114;-77
2022/07/10 00:35:37;;;;;;;4.17;1.72;;;21.30;99.90;;;;;;1905272;74;21194;-77
2022/07/10 00:38:29;;;;;;;7.12;2.08;;;21.30;99.90;;;;;;1904797;74;21117;-77
2022/07/10 00:41:20;;;;;;;4.65;2.02;;;21.20;99.90;;;;;;1926390;74;21063;-78
2022/07/10 00:44:12;;;;;;;5.55;1.90;;;21.20;99.90;;;;;;1925649;74;21098;-77
2022/07/10 00:47:04;;;;;;;4.37;1.87;;;21.20;99.90;;;;;;1925821;74;21136;-77
2022/07/10 00:49:55;;;;;;;4.80;1.72;;;21.20;99.90;;;;;;1892949;74;21163;-77
2022/07/10 00:52:47;;;;;;;4.67;1.50;;;21.20;99.90;;;;;;1921356;74;21167;-77
2022/07/10 00:55:40;;;;;;;5.05;1.70;;;21.20;99.90;;;;;;1918031;74;21126;-77
2022/07/10 00:58:31;;;;;;;9.25;2.20;;;21.10;99.90;;;;;;1918657;74;21223;-77
2022/07/10 01:01:23;;;;;;;2.87;1.60;;;21.00;99.90;;;;;;1928377;74;21166;-77
2022/07/10 01:04:15;;;;;;;3.60;1.60;;;21.10;99.90;;;;;;1906940;74;21547;-78
2022/07/10 01:07:07;;;;;;;2.58;1.50;;;21.10;99.90;;;;;;1907761;74;21059;-77
2022/07/10 01:09:59;;;;;;;4.45;1.60;;;21.10;99.90;;;;;;1921296;74;21132;-77
2022/07/10 01:12:51;;;;;;;2.65;1.40;;;21.00;99.90;;;;;;1917504;74;21183;-77
2022/07/10 01:15:43;;;;;;;4.95;1.92;;;21.00;99.90;;;;;;1928181;74;21116;-77
2022/07/10 01:18:34;;;;;;;4.47;1.70;;;20.90;99.90;;;;;;1926956;74;21054;-77
2022/07/10 01:21:26;;;;;;;3.92;1.60;;;20.80;99.90;;;;;;1915429;74;21160;-77
2022/07/10 01:24:17;;;;;;;4.67;1.65;;;20.90;99.90;;;;;;1910648;74;21108;-78
2022/07/10 01:27:09;;;;;;;4.15;1.55;;;20.80;99.90;;;;;;1897927;74;21188;-77
2022/07/10 01:30:01;;;;;;;4.00;1.40;;;20.80;99.90;;;;;;1920788;74;21505;-77
2022/07/10 01:32:52;;;;;;;3.90;1.85;;;20.80;99.90;;;;;;1915429;74;21066;-76
2022/07/10 01:35:44;;;;;;;5.90;1.85;;;20.70;99.90;;;;;;1909781;74;21171;-76
2022/07/10 01:38:35;;;;;;;3.98;1.70;;;20.70;99.90;;;;;;1906885;74;21053;-76
2022/07/10 01:41:28;;;;;;;2.50;1.62;;;20.70;99.90;;;;;;1930247;74;21196;-77
2022/07/10 01:44:19;;;;;;;5.20;1.60;;;20.60;99.90;;;;;;1910439;74;21072;-77
2022/07/10 01:47:11;;;;;;;3.35;1.65;;;20.60;99.90;;;;;;1911422;74;21050;-77
2022/07/10 01:50:03;;;;;;;4.33;1.60;;;20.60;99.90;;;;;;1930171;74;21553;-77
2022/07/10 01:52:54;;;;;;;4.28;1.75;;;20.60;99.90;;;;;;1924490;74;21085;-77
2022/07/10 01:55:46;;;;;;;4.62;1.87;;;20.40;99.90;;;;;;1920535;74;21091;-77
2022/07/10 01:58:38;;;;;;;4.50;1.85;;;20.40;99.90;;;;;;1911358;74;21065;-77
2022/07/10 02:01:30;;;;;;;6.08;1.90;;;20.30;99.90;;;;;;1929966;74;21070;-77
2022/07/10 02:07:31;;;;;;;4.83;1.80;;;20.30;99.90;;;;;;1929797;74;21498;-77
2022/07/10 02:10:22;;;;;;;5.10;1.62;;;20.20;99.90;;;;;;1909221;74;21075;-76
2022/07/10 02:13:14;;;;;;;4.92;1.75;;;20.20;99.90;;;;;;1912176;74;21206;-77
2022/07/10 02:16:07;;;;;;;5.28;1.62;;;20.10;99.90;;;;;;1929675;74;21136;-77
2022/07/10 02:18:59;;;;;;;4.83;1.57;;;20.10;99.90;;;;;;1929796;74;21101;-76
2022/07/10 02:21:51;;;;;;;2.98;1.40;;;20.10;99.90;;;;;;1907702;74;21071;-76
2022/07/10 02:24:43;;;;;;;3.67;1.70;;;20.10;99.90;;;;;;1930066;74;21101;-76
2022/07/10 02:27:34;;;;;;;3.05;1.47;;;20.10;99.90;;;;;;1909228;74;21098;-76
2022/07/10 02:30:26;;;;;;;5.97;1.50;;;20.20;99.90;;;;;;1899724;74;21081;-77
2022/07/10 02:33:18;;;;;;;4.28;1.60;;;20.10;99.90;;;;;;1918390;74;21057;-77
2022/07/10 02:36:09;;;;;;;3.40;1.40;;;20.20;99.90;;;;;;1915434;74;21167;-77
2022/07/10 02:39:01;;;;;;;3.67;1.50;;;20.20;99.90;;;;;;1911064;74;21094;-77
2022/07/10 02:41:53;;;;;;;3.27;1.60;;;20.20;99.90;;;;;;1930081;74;21042;-77
2022/07/10 02:44:44;;;;;;;5.58;1.60;;;20.10;99.90;;;;;;1924778;74;21115;-77
2022/07/10 02:47:36;;;;;;;4.67;1.62;;;20.20;99.90;;;;;;1923761;74;21097;-76
2022/07/10 02:50:28;;;;;;;2.37;1.40;;;20.20;99.90;;;;;;1912581;74;21105;-76
2022/07/10 02:55:59;;;;;;;3.30;1.35;;;20.10;99.90;;;;;;1942567;72;22116;-75
2022/07/10 02:58:50;;;;;;;5.33;1.55;;;20.10;99.90;;;;;;1892277;75;21197;-76
2022/07/10 03:01:41;;;;;;;3.60;1.60;;;20.20;99.90;;;;;;1887153;75;21114;-76
2022/07/10 03:04:33;;;;;;;2.50;1.50;;;20.20;99.90;;;;;;1895601;75;21594;-77
2022/07/10 03:07:25;;;;;;;3.42;1.92;;;20.10;99.90;;;;;;1894761;75;21220;-77
2022/07/10 03:10:16;;;;;;;3.83;1.62;;;20.10;99.90;;;;;;1894308;75;21044;-77
2022/07/10 03:13:08;;;;;;;2.55;1.80;;;20.00;99.90;;;;;;1889630;75;21100;-76
2022/07/10 03:16:00;;;;;;;2.90;1.50;;;20.00;99.90;;;;;;1884348;75;21444;-76
2022/07/10 03:18:52;;;;;;;3.30;1.55;;;20.00;99.90;;;;;;1883570;75;21103;-76
2022/07/10 03:21:44;;;;;;;2.90;1.50;;;19.90;99.90;;;;;;1904352;75;21052;-77
2022/07/10 03:24:35;;;;;;;3.45;1.30;;;19.90;99.90;;;;;;1890482;75;21161;-77
2022/07/10 03:27:27;;;;;;;3.62;1.60;;;19.90;99.90;;;;;;1885710;75;21228;-77
2022/07/10 03:30:20;;;;;;;2.60;1.30;;;19.90;99.90;;;;;;1883637;75;21087;-77
2022/07/10 03:33:11;;;;;;;2.27;1.35;;;19.90;99.90;;;;;;1883818;75;21071;-77
2022/07/10 03:36:03;;;;;;;5.47;1.37;;;19.90;99.90;;;;;;1888587;75;21109;-77
2022/07/10 03:38:54;;;;;;;3.33;1.42;;;19.90;99.90;;;;;;1885187;75;21047;-77
2022/07/10 03:41:46;;;;;;;2.83;1.10;;;19.90;99.90;;;;;;1877012;75;21118;-76
2022/07/10 03:44:38;;;;;;;3.37;1.72;;;19.90;99.90;;;;;;1894660;75;21081;-77
2022/07/10 03:47:30;;;;;;;1.92;1.20;;;19.90;99.90;;;;;;1891708;75;21064;-77
2022/07/10 03:50:22;;;;;;;4.12;1.25;;;19.90;99.90;;;;;;1886383;75;21158;-76
2022/07/10 03:53:13;;;;;;;2.27;1.50;;;19.90;99.90;;;;;;1875603;75;21068;-76
2022/07/10 03:56:05;;;;;;;3.45;1.50;;;19.90;99.90;;;;;;1893420;75;21155;-76
2022/07/10 03:58:57;;;;;;;2.85;1.40;;;19.80;99.90;;;;;;1871508;76;21118;-77
2022/07/10 04:01:48;;;;;;;5.35;1.52;;;19.80;99.90;;;;;;1871596;75;21231;-77
2022/07/10 04:04:40;;;;;;;4.03;1.32;;;19.70;99.90;;;;;;1893511;75;21135;-77
2022/07/10 04:07:31;;;;;;;3.55;1.50;;;19.70;99.90;;;;;;1879426;75;21637;-77
2022/07/10 04:10:22;;;;;;;2.47;1.40;;;19.60;99.90;;;;;;1905217;75;21114;-77
2022/07/10 04:13:14;;;;;;;3.30;1.47;;;19.50;99.90;;;;;;1891317;75;21063;-77
2022/07/10 04:16:10;;;;;;;2.58;1.70;;;19.50;99.90;;;;;;1908387;75;21046;-77
2022/07/10 04:19:00;;;;;;;3.95;1.50;;;19.50;99.90;;;;;;1883704;75;21095;-77
2022/07/10 04:21:52;;;;;;;3.33;1.35;;;19.50;99.90;;;;;;1883955;75;21179;-77
2022/07/10 04:27:23;;;;;;;3.60;1.90;;;19.40;99.90;;;;;;1942065;72;22249;-78
2022/07/10 04:30:14;;;;;;;2.02;1.50;;;19.30;99.90;;;;;;1925666;74;21153;-76
2022/07/10 04:33:06;;;;;;;2.90;1.50;;;19.30;99.90;;;;;;1905382;75;21163;-77
2022/07/10 04:35:58;;;;;;;1.65;1.40;;;19.30;99.90;;;;;;1900629;75;21139;-76
2022/07/10 04:38:49;;;;;;;4.95;1.45;;;19.30;99.90;;;;;;1895532;75;21101;-76
2022/07/10 04:41:40;;;;;;;2.77;1.50;;;19.20;99.90;;;;;;1895211;75;21128;-76
2022/07/10 04:44:32;;;;;;;2.45;1.32;;;19.20;99.90;;;;;;1916943;74;21133;-76
2022/07/10 04:47:24;;;;;;;4.70;2.20;;;19.20;99.90;;;;;;1935979;74;21123;-77
2022/07/10 04:50:16;;;;;;;3.70;1.82;;;19.20;99.90;;;;;;1916716;74;21172;-77
2022/07/10 04:53:08;;;;;;;3.70;1.47;;;19.20;99.90;;;;;;1926410;74;21124;-76
2022/07/10 04:55:59;;;;;;;4.90;1.60;;;19.20;99.90;;;;;;1895992;74;21193;-76
2022/07/10 04:58:51;;;;;;;4.12;1.62;;;19.30;99.90;;;;;;1929557;74;21058;-77
2022/07/10 05:01:43;;;;;;;3.92;1.50;;;19.40;99.90;;;;;;1898222;75;21150;-77
2022/07/10 05:04:35;;;;;;;4.03;1.92;;;19.40;99.90;;;;;;1895632;75;21553;-76
2022/07/10 05:07:27;;;;;;;2.47;1.40;;;19.50;99.90;;;;;;1895417;75;21114;-77
2022/07/10 05:10:18;;;;;;;3.70;1.60;;;19.50;99.90;;;;;;1897804;75;21110;-76
2022/07/10 05:13:11;;;;;;;2.67;1.50;;;19.50;99.90;;;;;;1899144;75;21047;-77
2022/07/10 05:16:03;;;;;;;3.30;1.60;;;19.50;99.90;;;;;;1908285;75;21134;-76
2022/07/10 05:18:54;;;;;;;1.67;1.42;;;19.50;99.90;;;;;;1924492;74;21113;-77
2022/07/10 05:21:46;;;;;;;4.05;1.98;;;19.50;99.90;;;;;;1919810;74;21101;-77
2022/07/10 05:24:39;;;;;;;4.90;1.80;;;19.60;99.90;;;;;;1900511;75;21631;-77
2022/07/10 05:27:30;;;;;;;3.45;2.22;;;19.60;99.90;;;;;;1909351;75;21126;-76
2022/07/10 05:33:03;;;;;;;4.30;2.40;;;19.70;99.90;;;;;;1976192;72;22170;-76
2022/07/10 05:35:53;;;;;;;5.70;1.85;;;19.70;99.90;;;;;;1917470;75;21110;-77
2022/07/10 05:38:45;;;;;;;3.05;1.90;;;19.80;99.90;;;;;;1940359;73;21113;-76
2022/07/10 05:41:36;;;;;;;4.90;1.80;;;19.90;99.90;;;;;;1917630;75;21198;-76
2022/07/10 05:44:28;;;;;;;3.37;1.95;;;19.90;99.90;;;;;;1939133;73;21153;-76
2022/07/10 05:47:19;;;;;;;4.45;1.82;;;19.90;99.90;;;;;;1933445;73;21051;-76
2022/07/10 05:50:12;;;;;;;2.25;1.70;;;19.80;99.90;;;;;;1918076;73;21094;-76
2022/07/10 05:53:03;;;;;;;2.20;2.00;;;19.90;99.90;;;;;;1922360;73;21171;-76
2022/07/10 05:55:55;;;;;;;2.58;1.85;;;19.90;99.90;;;;;;1928677;73;21170;-77
2022/07/10 05:58:46;;;;;;;2.62;2.00;;;19.90;99.90;;;;;;1934633;73;21051;-77
2022/07/10 06:01:37;;;;;;;3.72;2.00;;;19.90;99.90;;;;;;1917567;75;21043;-76
2022/07/10 06:04:29;;;;;;;2.95;2.00;;;20.00;99.90;;;;;;1923584;73;21050;-76
2022/07/10 06:07:20;;;;;;;2.58;1.87;;;20.00;99.90;;;;;;1928082;73;21561;-76
2022/07/10 06:10:13;;;;;;;2.92;1.87;;;20.00;99.90;;;;;;1917595;75;21566;-77
2022/07/10 06:13:04;;;;;;;3.90;1.82;;;20.00;99.90;;;;;;1917287;75;21102;-77
2022/07/10 06:15:56;;;;;;;2.98;2.05;;;20.00;99.90;;;;;;1917822;75;21100;-77
2022/07/10 06:18:47;;;;;;;3.15;1.72;;;20.00;99.90;;;;;;1917926;75;21152;-76
2022/07/10 06:21:39;;;;;;;3.52;2.02;;;19.90;99.90;;;;;;1917561;75;21086;-77
2022/07/10 06:24:30;;;;;;;3.87;2.12;;;19.90;99.90;;;;;;1917557;75;21180;-76
2022/07/10 06:27:21;;;;;;;2.22;1.90;;;20.00;99.90;;;;;;1926396;73;21081;-77
2022/07/10 06:30:13;;;;;;;3.33;1.77;;;20.10;99.90;;;;;;1915900;73;21031;-77
2022/07/10 06:33:05;;;;;;;3.40;1.95;;;20.10;99.90;;;;;;1917499;73;21197;-77
2022/07/10 06:35:56;;;;;;;3.70;1.70;;;20.10;99.90;;;;;;1933115;73;21175;-76
2022/07/10 06:38:48;;;;;;;2.77;1.70;;;20.10;99.90;;;;;;1940447;73;21098;-76
2022/07/10 06:41:39;;;;;;;4.15;1.62;;;20.10;99.90;;;;;;1917449;75;21164;-77
2022/07/10 06:44:31;;;;;;;3.25;1.80;;;20.20;99.90;;;;;;1916265;75;21250;-76
2022/07/10 06:50:34;;;;;;;2.75;1.30;;;20.10;99.90;;;;;;1916240;75;21224;-78
2022/07/10 06:53:26;;;;;;;2.17;1.57;;;20.20;99.90;;;;;;1939880;73;21186;-77
2022/07/10 06:56:19;;;;;;;2.05;1.55;;;20.20;99.90;;;;;;1916614;75;21070;-77
2022/07/10 06:59:10;;;;;;;4.78;1.42;;;20.20;99.90;;;;;;1916188;73;21209;-77
2022/07/10 07:02:02;;;;;;;4.67;1.40;;;20.30;99.90;;;;;;1916866;73;21091;-77
2022/07/10 07:04:54;;;;;;;4.85;1.42;;;20.30;99.90;;;;;;1916803;75;21113;-77
